sensor_id;sensor_type;location;lat;lon;timestamp;temperature;humidity
20560;DHT22;10438;51.454;6.718;2023-03-01T00:02:17;0.90;99.90
20560;DHT22;10438;51.454;6.718;2023-03-01T00:04:42;0.90;99.90
20560;DHT22;10438;51.454;6.718;2023-03-01T00:07:08;0.90;99.90
20560;DHT22;10438;51.454;6.718;2023-03-01T00:09:33;0.90;99.90
20560;DHT22;10438;51.454;6.718;2023-03-01T00:11:59;0.90;99.90
20560;DHT22;10438;51.454;6.718;2023-03-01T00:14:24;0.90;99.90
20560;DHT22;10438;51.454;6.718;2023-03-01T00:16:50;0.90;99.90
20560;DHT22;10438;51.454;6.718;2023-03-01T00:19:17;0.90;99.90
20560;DHT22;10438;51.454;6.718;2023-03-01T00:21:44;0.90;99.90
20560;DHT22;10438;51.454;6.718;2023-03-01T00:24:10;0.90;99.90
20560;DHT22;10438;51.454;6.718;2023-03-01T00:26:35;0.90;99.90
20560;DHT22;10438;51.454;6.718;2023-03-01T00:29:01;0.90;99.90
20560;DHT22;10438;51.454;6.718;2023-03-01T00:31:29;0.90;99.90
20560;DHT22;10438;51.454;6.718;2023-03-01T00:33:56;0.90;99.90
20560;DHT22;10438;51.454;6.718;2023-03-01T00:36:24;0.90;99.90
20560;DHT22;10438;51.454;6.718;2023-03-01T00:38:50;0.90;99.90
20560;DHT22;10438;51.454;6.718;2023-03-01T00:41:17;0.90;99.90
20560;DHT22;10438;51.454;6.718;2023-03-01T00:43:43;0.80;99.90
20560;DHT22;10438;51.454;6.718;2023-03-01T00:46:12;0.80;99.90
20560;DHT22;10438;51.454;6.718;2023-03-01T00:48:38;0.80;99.90
20560;DHT22;10438;51.454;6.718;2023-03-01T00:51:09;0.70;99.90
20560;DHT22;10438;51.454;6.718;2023-03-01T00:53:36;0.70;99.90
20560;DHT22;10438;51.454;6.718;2023-03-01T00:56:02;0.70;99.90
20560;DHT22;10438;51.454;6.718;2023-03-01T00:58:28;0.70;99.90
20560;DHT22;10438;51.454;6.718;2023-03-01T01:00:54;0.70;99.90
20560;DHT22;10438;51.454;6.718;2023-03-01T01:03:20;0.70;99.90
20560;DHT22;10438;51.454;6.718;2023-03-01T01:05:45;0.60;99.90
20560;DHT22;10438;51.454;6.718;2023-03-01T01:08:11;0.60;99.90
20560;DHT22;10438;51.454;6.718;2023-03-01T01:10:37;0.60;99.90
20560;DHT22;10438;51.454;6.718;2023-03-01T01:13:03;0.60;99.90
20560;DHT22;10438;51.454;6.718;2023-03-01T01:15:29;0.60;99.90
20560;DHT22;10438;51.454;6.718;2023-03-01T01:17:58;0.60;99.90
20560;DHT22;10438;51.454;6.718;2023-03-01T01:20:23;0.60;99.90
20560;DHT22;10438;51.454;6.718;2023-03-01T01:22:49;0.60;99.90
20560;DHT22;10438;51.454;6.718;2023-03-01T01:25:14;0.60;99.90
20560;DHT22;10438;51.454;6.718;2023-03-01T01:27:40;0.60;99.90
20560;DHT22;10438;51.454;6.718;2023-03-01T01:30:06;0.60;99.90
20560;DHT22;10438;51.454;6.718;2023-03-01T01:32:31;0.60;99.90
20560;DHT22;10438;51.454;6.718;2023-03-01T01:34:57;0.50;99.90
20560;DHT22;10438;51.454;6.718;2023-03-01T01:37:22;0.40;99.90
20560;DHT22;10438;51.454;6.718;2023-03-01T01:39:48;0.40;99.90
20560;DHT22;10438;51.454;6.718;2023-03-01T01:42:18;0.50;99.90
20560;DHT22;10438;51.454;6.718;2023-03-01T01:44:47;0.40;99.90
20560;DHT22;10438;51.454;6.718;2023-03-01T01:47:17;0.40;99.90
20560;DHT22;10438;51.454;6.718;2023-03-01T01:49:51;0.40;99.90
20560;DHT22;10438;51.454;6.718;2023-03-01T01:52:24;0.40;99.90
20560;DHT22;10438;51.454;6.718;2023-03-01T01:54:57;0.30;99.90
20560;DHT22;10438;51.454;6.718;2023-03-01T01:57:27;0.30;99.90
20560;DHT22;10438;51.454;6.718;2023-03-01T01:59:57;0.30;99.90
20560;DHT22;10438;51.454;6.718;2023-03-01T02:02:25;0.30;99.90
20560;DHT22;10438;51.454;6.718;2023-03-01T02:05:01;0.30;99.90
20560;DHT22;10438;51.454;6.718;2023-03-01T02:07:29;0.40;99.90
20560;DHT22;10438;51.454;6.718;2023-03-01T02:09:55;0.30;99.90
20560;DHT22;10438;51.454;6.718;2023-03-01T02:12:23;0.30;99.90
20560;DHT22;10438;51.454;6.718;2023-03-01T02:14:49;0.30;99.90
20560;DHT22;10438;51.454;6.718;2023-03-01T02:17:17;0.30;99.90
20560;DHT22;10438;51.454;6.718;2023-03-01T02:20:00;0.20;99.90
20560;DHT22;10438;51.454;6.718;2023-03-01T02:22:33;0.20;99.90
20560;DHT22;10438;51.454;6.718;2023-03-01T02:30:30;0.10;99.90
20560;DHT22;10438;51.454;6.718;2023-03-01T02:32:56;0.10;99.90
20560;DHT22;10438;51.454;6.718;2023-03-01T02:35:32;0.10;99.90
20560;DHT22;10438;51.454;6.718;2023-03-01T02:38:00;0.10;99.90
20560;DHT22;10438;51.454;6.718;2023-03-01T02:40:28;0.00;99.90
20560;DHT22;10438;51.454;6.718;2023-03-01T02:42:57;0.00;99.90
20560;DHT22;10438;51.454;6.718;2023-03-01T02:45:24;0.00;99.90
20560;DHT22;10438;51.454;6.718;2023-03-01T02:47:54;0.00;99.90
20560;DHT22;10438;51.454;6.718;2023-03-01T02:53:08;-0.10;99.90
20560;DHT22;10438;51.454;6.718;2023-03-01T02:55:34;-0.10;99.90
20560;DHT22;10438;51.454;6.718;2023-03-01T02:58:02;-0.10;99.90
20560;DHT22;10438;51.454;6.718;2023-03-01T03:00:46;-0.20;99.90
20560;DHT22;10438;51.454;6.718;2023-03-01T03:03:15;-0.20;99.90
20560;DHT22;10438;51.454;6.718;2023-03-01T03:05:42;-0.20;99.90
20560;DHT22;10438;51.454;6.718;2023-03-01T03:08:07;-0.20;99.90
20560;DHT22;10438;51.454;6.718;2023-03-01T03:10:36;-0.20;99.90
20560;DHT22;10438;51.454;6.718;2023-03-01T03:13:05;-0.20;99.90
20560;DHT22;10438;51.454;6.718;2023-03-01T03:15:31;-0.20;99.90
20560;DHT22;10438;51.454;6.718;2023-03-01T03:17:58;-0.30;99.90
20560;DHT22;10438;51.454;6.718;2023-03-01T03:20:26;-0.30;99.90
20560;DHT22;10438;51.454;6.718;2023-03-01T03:22:54;-0.30;99.90
20560;DHT22;10438;51.454;6.718;2023-03-01T03:25:21;-0.30;99.90
20560;DHT22;10438;51.454;6.718;2023-03-01T03:27:48;-0.30;99.90
20560;DHT22;10438;51.454;6.718;2023-03-01T03:30:17;-0.20;99.90
20560;DHT22;10438;51.454;6.718;2023-03-01T03:32:44;-0.20;99.90
20560;DHT22;10438;51.454;6.718;2023-03-01T03:35:15;-0.30;99.90
20560;DHT22;10438;51.454;6.718;2023-03-01T03:37:41;-0.20;99.90
20560;DHT22;10438;51.454;6.718;2023-03-01T03:40:26;-0.30;99.90
20560;DHT22;10438;51.454;6.718;2023-03-01T03:42:52;-0.30;99.90
20560;DHT22;10438;51.454;6.718;2023-03-01T03:45:18;-0.30;99.90
20560;DHT22;10438;51.454;6.718;2023-03-01T03:47:43;-0.30;99.90
20560;DHT22;10438;51.454;6.718;2023-03-01T03:50:14;-0.30;99.90
20560;DHT22;10438;51.454;6.718;2023-03-01T03:52:40;-0.30;99.90
20560;DHT22;10438;51.454;6.718;2023-03-01T03:55:07;-0.30;99.90
20560;DHT22;10438;51.454;6.718;2023-03-01T03:57:39;-0.30;99.90
20560;DHT22;10438;51.454;6.718;2023-03-01T04:00:08;-0.30;99.90
20560;DHT22;10438;51.454;6.718;2023-03-01T04:02:45;-0.30;99.90
20560;DHT22;10438;51.454;6.718;2023-03-01T04:05:13;-0.30;99.90
20560;DHT22;10438;51.454;6.718;2023-03-01T04:07:39;-0.30;99.90
20560;DHT22;10438;51.454;6.718;2023-03-01T04:10:08;-0.40;99.90
20560;DHT22;10438;51.454;6.718;2023-03-01T04:12:34;-0.40;99.90
20560;DHT22;10438;51.454;6.718;2023-03-01T04:15:00;-0.40;99.90
20560;DHT22;10438;51.454;6.718;2023-03-01T04:17:26;-0.40;99.90
20560;DHT22;10438;51.454;6.718;2023-03-01T04:19:52;-0.40;99.90
20560;DHT22;10438;51.454;6.718;2023-03-01T04:22:17;-0.40;99.90
20560;DHT22;10438;51.454;6.718;2023-03-01T04:24:44;-0.50;99.90
20560;DHT22;10438;51.454;6.718;2023-03-01T04:27:10;-0.50;99.90
20560;DHT22;10438;51.454;6.718;2023-03-01T04:29:35;-0.50;99.90
20560;DHT22;10438;51.454;6.718;2023-03-01T04:32:01;-0.50;99.90
20560;DHT22;10438;51.454;6.718;2023-03-01T04:34:28;-0.50;99.90
20560;DHT22;10438;51.454;6.718;2023-03-01T04:36:54;-0.50;99.90
20560;DHT22;10438;51.454;6.718;2023-03-01T04:39:20;-0.50;99.90
20560;DHT22;10438;51.454;6.718;2023-03-01T04:41:45;-0.50;99.90
20560;DHT22;10438;51.454;6.718;2023-03-01T04:44:11;-0.50;99.90
20560;DHT22;10438;51.454;6.718;2023-03-01T04:46:36;-0.60;99.90
20560;DHT22;10438;51.454;6.718;2023-03-01T04:49:03;-0.60;99.90
20560;DHT22;10438;51.454;6.718;2023-03-01T04:51:29;-0.70;99.90
20560;DHT22;10438;51.454;6.718;2023-03-01T04:53:55;-0.70;99.90
20560;DHT22;10438;51.454;6.718;2023-03-01T04:56:20;-0.70;99.90
20560;DHT22;10438;51.454;6.718;2023-03-01T04:58:48;-0.70;99.90
20560;DHT22;10438;51.454;6.718;2023-03-01T05:01:17;-0.70;99.90
20560;DHT22;10438;51.454;6.718;2023-03-01T05:03:44;-0.70;99.90
20560;DHT22;10438;51.454;6.718;2023-03-01T05:06:10;-0.70;99.90
20560;DHT22;10438;51.454;6.718;2023-03-01T05:08:40;-0.70;99.90
20560;DHT22;10438;51.454;6.718;2023-03-01T05:11:05;-0.70;99.90
20560;DHT22;10438;51.454;6.718;2023-03-01T05:13:35;-0.80;99.90
20560;DHT22;10438;51.454;6.718;2023-03-01T05:16:02;-0.70;99.90
20560;DHT22;10438;51.454;6.718;2023-03-01T05:18:32;-0.80;99.90
20560;DHT22;10438;51.454;6.718;2023-03-01T05:21:12;-0.70;99.90
20560;DHT22;10438;51.454;6.718;2023-03-01T05:23:38;-0.70;99.90
20560;DHT22;10438;51.454;6.718;2023-03-01T05:26:05;-0.80;99.90
20560;DHT22;10438;51.454;6.718;2023-03-01T05:28:32;-0.70;99.90
20560;DHT22;10438;51.454;6.718;2023-03-01T05:30:58;-0.70;99.90
20560;DHT22;10438;51.454;6.718;2023-03-01T05:33:24;-0.60;99.90
20560;DHT22;10438;51.454;6.718;2023-03-01T05:35:51;-0.60;99.90
20560;DHT22;10438;51.454;6.718;2023-03-01T05:38:18;-0.60;99.90
20560;DHT22;10438;51.454;6.718;2023-03-01T05:40:45;-0.60;99.90
20560;DHT22;10438;51.454;6.718;2023-03-01T05:43:13;-0.60;99.90
20560;DHT22;10438;51.454;6.718;2023-03-01T05:45:39;-0.70;99.90
20560;DHT22;10438;51.454;6.718;2023-03-01T05:48:06;-0.70;99.90
20560;DHT22;10438;51.454;6.718;2023-03-01T05:50:35;-0.70;99.90
20560;DHT22;10438;51.454;6.718;2023-03-01T05:53:04;-0.70;99.90
20560;DHT22;10438;51.454;6.718;2023-03-01T05:55:32;-0.70;99.90
20560;DHT22;10438;51.454;6.718;2023-03-01T05:57:59;-0.70;99.90
20560;DHT22;10438;51.454;6.718;2023-03-01T06:00:25;-0.70;99.90
20560;DHT22;10438;51.454;6.718;2023-03-01T06:02:50;-0.70;99.90
20560;DHT22;10438;51.454;6.718;2023-03-01T06:05:17;-0.70;99.90
20560;DHT22;10438;51.454;6.718;2023-03-01T06:07:43;-0.70;99.90
20560;DHT22;10438;51.454;6.718;2023-03-01T06:10:10;-0.80;99.90
20560;DHT22;10438;51.454;6.718;2023-03-01T06:12:37;-0.70;99.90
20560;DHT22;10438;51.454;6.718;2023-03-01T06:15:05;-0.70;99.90
20560;DHT22;10438;51.454;6.718;2023-03-01T06:17:33;-0.70;99.90
20560;DHT22;10438;51.454;6.718;2023-03-01T06:20:07;-0.70;99.90
20560;DHT22;10438;51.454;6.718;2023-03-01T06:22:33;-0.70;99.90
20560;DHT22;10438;51.454;6.718;2023-03-01T06:24:58;-0.70;99.90
20560;DHT22;10438;51.454;6.718;2023-03-01T06:27:24;-0.70;99.90
20560;DHT22;10438;51.454;6.718;2023-03-01T06:29:49;-0.70;99.90
20560;DHT22;10438;51.454;6.718;2023-03-01T06:32:15;-0.70;99.90
20560;DHT22;10438;51.454;6.718;2023-03-01T06:34:41;-0.80;99.90
20560;DHT22;10438;51.454;6.718;2023-03-01T06:37:07;-0.80;99.90
20560;DHT22;10438;51.454;6.718;2023-03-01T06:39:33;-0.80;99.90
20560;DHT22;10438;51.454;6.718;2023-03-01T06:41:59;-0.80;99.90
20560;DHT22;10438;51.454;6.718;2023-03-01T06:44:24;-0.80;99.90
20560;DHT22;10438;51.454;6.718;2023-03-01T06:46:50;-0.80;99.90
20560;DHT22;10438;51.454;6.718;2023-03-01T06:49:16;-0.80;99.90
20560;DHT22;10438;51.454;6.718;2023-03-01T06:51:43;-0.70;99.90
20560;DHT22;10438;51.454;6.718;2023-03-01T06:54:08;-0.70;99.90
20560;DHT22;10438;51.454;6.718;2023-03-01T06:56:34;-0.70;99.90
20560;DHT22;10438;51.454;6.718;2023-03-01T06:58:59;-0.70;99.90
20560;DHT22;10438;51.454;6.718;2023-03-01T07:01:25;-0.70;99.90
20560;DHT22;10438;51.454;6.718;2023-03-01T07:03:51;-0.70;99.90
20560;DHT22;10438;51.454;6.718;2023-03-01T07:06:16;-0.60;99.90
20560;DHT22;10438;51.454;6.718;2023-03-01T07:08:43;-0.60;99.90
20560;DHT22;10438;51.454;6.718;2023-03-01T07:11:08;-0.60;99.90
20560;DHT22;10438;51.454;6.718;2023-03-01T07:13:34;-0.60;99.90
20560;DHT22;10438;51.454;6.718;2023-03-01T07:16:00;-0.50;99.90
20560;DHT22;10438;51.454;6.718;2023-03-01T07:18:25;-0.50;99.90
20560;DHT22;10438;51.454;6.718;2023-03-01T07:20:51;-0.40;99.90
20560;DHT22;10438;51.454;6.718;2023-03-01T07:23:16;-0.40;99.90
20560;DHT22;10438;51.454;6.718;2023-03-01T07:25:42;-0.30;99.90
20560;DHT22;10438;51.454;6.718;2023-03-01T07:28:08;-0.30;99.90
20560;DHT22;10438;51.454;6.718;2023-03-01T07:30:34;-0.30;99.90
20560;DHT22;10438;51.454;6.718;2023-03-01T07:32:59;-0.20;99.90
20560;DHT22;10438;51.454;6.718;2023-03-01T07:35:26;-0.20;99.90
20560;DHT22;10438;51.454;6.718;2023-03-01T07:37:52;-0.20;99.90
20560;DHT22;10438;51.454;6.718;2023-03-01T07:40:18;-0.10;99.90
20560;DHT22;10438;51.454;6.718;2023-03-01T07:42:43;-0.10;99.90
20560;DHT22;10438;51.454;6.718;2023-03-01T07:45:10;-0.10;99.90
20560;DHT22;10438;51.454;6.718;2023-03-01T07:47:36;-0.10;99.90
20560;DHT22;10438;51.454;6.718;2023-03-01T07:50:02;0.00;99.90
20560;DHT22;10438;51.454;6.718;2023-03-01T07:52:28;0.00;99.90
20560;DHT22;10438;51.454;6.718;2023-03-01T07:54:53;0.00;99.90
20560;DHT22;10438;51.454;6.718;2023-03-01T07:57:19;0.10;99.90
20560;DHT22;10438;51.454;6.718;2023-03-01T07:59:45;0.10;99.90
20560;DHT22;10438;51.454;6.718;2023-03-01T08:02:11;0.20;99.90
20560;DHT22;10438;51.454;6.718;2023-03-01T08:04:36;0.20;99.90
20560;DHT22;10438;51.454;6.718;2023-03-01T08:07:04;0.30;99.90
20560;DHT22;10438;51.454;6.718;2023-03-01T08:09:30;0.30;99.90
20560;DHT22;10438;51.454;6.718;2023-03-01T08:11:57;0.30;99.90
20560;DHT22;10438;51.454;6.718;2023-03-01T08:14:25;0.40;99.90
20560;DHT22;10438;51.454;6.718;2023-03-01T08:16:50;0.40;99.90
20560;DHT22;10438;51.454;6.718;2023-03-01T08:19:16;0.50;99.90
20560;DHT22;10438;51.454;6.718;2023-03-01T08:21:41;0.50;99.90
20560;DHT22;10438;51.454;6.718;2023-03-01T08:24:07;0.50;99.90
20560;DHT22;10438;51.454;6.718;2023-03-01T08:26:35;0.60;99.90
20560;DHT22;10438;51.454;6.718;2023-03-01T08:29:01;0.70;99.90
20560;DHT22;10438;51.454;6.718;2023-03-01T08:31:30;0.70;99.90
20560;DHT22;10438;51.454;6.718;2023-03-01T08:33:58;0.70;99.90
20560;DHT22;10438;51.454;6.718;2023-03-01T08:36:30;0.70;99.90
20560;DHT22;10438;51.454;6.718;2023-03-01T08:38:56;0.80;99.90
20560;DHT22;10438;51.454;6.718;2023-03-01T08:41:22;0.80;99.90
20560;DHT22;10438;51.454;6.718;2023-03-01T08:43:47;0.90;99.90
20560;DHT22;10438;51.454;6.718;2023-03-01T08:46:13;0.90;99.90
20560;DHT22;10438;51.454;6.718;2023-03-01T08:48:39;1.00;99.90
20560;DHT22;10438;51.454;6.718;2023-03-01T08:51:16;1.00;99.90
20560;DHT22;10438;51.454;6.718;2023-03-01T10:52:59;7.70;1.00
20560;DHT22;10438;51.454;6.718;2023-03-01T10:55:39;7.70;1.00
20560;DHT22;10438;51.454;6.718;2023-03-01T10:58:18;8.00;1.00
20560;DHT22;10438;51.454;6.718;2023-03-01T11:01:01;7.90;1.00
20560;DHT22;10438;51.454;6.718;2023-03-01T11:03:33;7.90;1.00
20560;DHT22;10438;51.454;6.718;2023-03-01T11:08:43;7.80;1.00
20560;DHT22;10438;51.454;6.718;2023-03-01T11:13:35;9.10;1.00
20560;DHT22;10438;51.454;6.718;2023-03-01T11:16:07;8.50;1.00
20560;DHT22;10438;51.454;6.718;2023-03-01T11:18:35;8.60;1.00
20560;DHT22;10438;51.454;6.718;2023-03-01T11:21:01;8.60;1.00
20560;DHT22;10438;51.454;6.718;2023-03-01T11:23:28;8.50;1.00
20560;DHT22;10438;51.454;6.718;2023-03-01T11:25:59;8.60;1.00
20560;DHT22;10438;51.454;6.718;2023-03-01T11:28:27;8.80;1.00
20560;DHT22;10438;51.454;6.718;2023-03-01T11:31:06;8.40;1.00
20560;DHT22;10438;51.454;6.718;2023-03-01T11:33:42;8.30;1.00
20560;DHT22;10438;51.454;6.718;2023-03-01T11:39:21;8.50;1.00
20560;DHT22;10438;51.454;6.718;2023-03-01T11:42:00;8.60;1.00
20560;DHT22;10438;51.454;6.718;2023-03-01T11:44:29;8.60;1.00
20560;DHT22;10438;51.454;6.718;2023-03-01T11:47:40;8.70;1.00
20560;DHT22;10438;51.454;6.718;2023-03-01T11:53:14;8.50;1.00
20560;DHT22;10438;51.454;6.718;2023-03-01T12:07:46;8.50;1.00
20560;DHT22;10438;51.454;6.718;2023-03-01T12:10:23;8.80;1.00
20560;DHT22;10438;51.454;6.718;2023-03-01T12:13:27;8.50;1.00
20560;DHT22;10438;51.454;6.718;2023-03-01T12:30:26;10.90;1.00
20560;DHT22;10438;51.454;6.718;2023-03-01T12:33:17;10.60;1.00
20560;DHT22;10438;51.454;6.718;2023-03-01T12:38:49;10.90;1.00
20560;DHT22;10438;51.454;6.718;2023-03-01T12:50:01;10.60;1.00
20560;DHT22;10438;51.454;6.718;2023-03-01T12:55:02;10.90;1.00
20560;DHT22;10438;51.454;6.718;2023-03-01T12:57:38;10.50;1.00
20560;DHT22;10438;51.454;6.718;2023-03-01T13:00:17;10.60;1.00
20560;DHT22;10438;51.454;6.718;2023-03-01T13:03:10;10.50;1.00
20560;DHT22;10438;51.454;6.718;2023-03-01T13:06:04;10.60;1.00
20560;DHT22;10438;51.454;6.718;2023-03-01T13:09:04;10.10;1.00
20560;DHT22;10438;51.454;6.718;2023-03-01T13:11:32;10.30;1.00
20560;DHT22;10438;51.454;6.718;2023-03-01T13:16:45;9.50;1.00
20560;DHT22;10438;51.454;6.718;2023-03-01T13:19:22;9.10;1.00
20560;DHT22;10438;51.454;6.718;2023-03-01T13:21:50;9.10;1.00
20560;DHT22;10438;51.454;6.718;2023-03-01T13:24:39;9.20;1.00
20560;DHT22;10438;51.454;6.718;2023-03-01T13:32:28;9.00;1.00
20560;DHT22;10438;51.454;6.718;2023-03-01T13:34:56;8.70;1.00
20560;DHT22;10438;51.454;6.718;2023-03-01T13:51:03;9.10;1.00
20560;DHT22;10438;51.454;6.718;2023-03-01T13:53:33;9.90;1.00
20560;DHT22;10438;51.454;6.718;2023-03-01T13:56:03;10.20;1.00
20560;DHT22;10438;51.454;6.718;2023-03-01T13:58:46;10.20;1.00
20560;DHT22;10438;51.454;6.718;2023-03-01T14:01:26;10.00;1.00
20560;DHT22;10438;51.454;6.718;2023-03-01T14:03:52;10.10;1.00
20560;DHT22;10438;51.454;6.718;2023-03-01T14:06:30;9.60;1.00
20560;DHT22;10438;51.454;6.718;2023-03-01T14:09:10;9.80;1.00
20560;DHT22;10438;51.454;6.718;2023-03-01T14:17:09;10.00;1.00
20560;DHT22;10438;51.454;6.718;2023-03-01T14:19:39;10.20;1.00
20560;DHT22;10438;51.454;6.718;2023-03-01T14:22:20;10.30;1.00
20560;DHT22;10438;51.454;6.718;2023-03-01T14:24:57;10.20;1.00
20560;DHT22;10438;51.454;6.718;2023-03-01T14:27:27;9.90;1.00
20560;DHT22;10438;51.454;6.718;2023-03-01T14:29:57;9.70;1.00
20560;DHT22;10438;51.454;6.718;2023-03-01T14:32:28;9.90;1.00
20560;DHT22;10438;51.454;6.718;2023-03-01T14:34:56;9.60;1.00
20560;DHT22;10438;51.454;6.718;2023-03-01T14:37:26;9.50;1.00
20560;DHT22;10438;51.454;6.718;2023-03-01T14:39:52;9.20;1.00
20560;DHT22;10438;51.454;6.718;2023-03-01T14:42:21;8.80;1.00
20560;DHT22;10438;51.454;6.718;2023-03-01T14:44:51;8.70;1.00
20560;DHT22;10438;51.454;6.718;2023-03-01T14:47:27;8.70;1.00
20560;DHT22;10438;51.454;6.718;2023-03-01T14:50:27;8.40;1.00
20560;DHT22;10438;51.454;6.718;2023-03-01T14:52:59;8.10;1.00
20560;DHT22;10438;51.454;6.718;2023-03-01T14:55:31;8.00;1.00
20560;DHT22;10438;51.454;6.718;2023-03-01T14:57:58;8.00;1.00
20560;DHT22;10438;51.454;6.718;2023-03-01T15:00:30;8.00;1.00
20560;DHT22;10438;51.454;6.718;2023-03-01T15:03:00;8.00;1.00
20560;DHT22;10438;51.454;6.718;2023-03-01T15:05:32;8.00;1.00
20560;DHT22;10438;51.454;6.718;2023-03-01T15:07:59;8.20;1.00
20560;DHT22;10438;51.454;6.718;2023-03-01T15:10:28;8.20;1.00
20560;DHT22;10438;51.454;6.718;2023-03-01T15:12:55;8.30;1.00
20560;DHT22;10438;51.454;6.718;2023-03-01T15:17:58;8.70;1.00
20560;DHT22;10438;51.454;6.718;2023-03-01T15:20:26;8.90;1.00
20560;DHT22;10438;51.454;6.718;2023-03-01T15:22:53;9.30;1.00
20560;DHT22;10438;51.454;6.718;2023-03-01T15:25:23;9.40;1.00
20560;DHT22;10438;51.454;6.718;2023-03-01T15:27:51;9.70;1.00
20560;DHT22;10438;51.454;6.718;2023-03-01T15:30:22;9.30;1.00
20560;DHT22;10438;51.454;6.718;2023-03-01T15:32:49;8.60;1.00
20560;DHT22;10438;51.454;6.718;2023-03-01T15:35:47;8.50;1.00
20560;DHT22;10438;51.454;6.718;2023-03-01T15:40:51;8.10;1.00
20560;DHT22;10438;51.454;6.718;2023-03-01T15:46:03;7.70;1.00
20560;DHT22;10438;51.454;6.718;2023-03-01T15:48:29;7.40;1.00
20560;DHT22;10438;51.454;6.718;2023-03-01T15:50:57;7.50;1.00
20560;DHT22;10438;51.454;6.718;2023-03-01T15:53:23;7.30;1.00
20560;DHT22;10438;51.454;6.718;2023-03-01T15:55:49;7.30;1.00
20560;DHT22;10438;51.454;6.718;2023-03-01T15:58:18;7.30;1.00
20560;DHT22;10438;51.454;6.718;2023-03-01T16:00:46;7.20;1.00
20560;DHT22;10438;51.454;6.718;2023-03-01T16:03:15;7.30;1.00
20560;DHT22;10438;51.454;6.718;2023-03-01T16:05:47;7.20;1.00
20560;DHT22;10438;51.454;6.718;2023-03-01T16:08:14;7.10;1.00
20560;DHT22;10438;51.454;6.718;2023-03-01T16:10:40;7.10;1.00
20560;DHT22;10438;51.454;6.718;2023-03-01T16:13:06;7.10;1.00
20560;DHT22;10438;51.454;6.718;2023-03-01T16:15:33;7.10;1.00
20560;DHT22;10438;51.454;6.718;2023-03-01T16:18:03;7.00;1.00
20560;DHT22;10438;51.454;6.718;2023-03-01T16:20:30;6.90;1.00
20560;DHT22;10438;51.454;6.718;2023-03-01T16:23:05;6.80;1.00
20560;DHT22;10438;51.454;6.718;2023-03-01T16:25:34;6.80;1.00
20560;DHT22;10438;51.454;6.718;2023-03-01T16:28:00;6.80;1.00
20560;DHT22;10438;51.454;6.718;2023-03-01T16:30:30;6.80;1.00
20560;DHT22;10438;51.454;6.718;2023-03-01T16:32:55;6.70;1.00
20560;DHT22;10438;51.454;6.718;2023-03-01T16:35:21;6.80;1.00
20560;DHT22;10438;51.454;6.718;2023-03-01T16:37:47;6.70;1.00
20560;DHT22;10438;51.454;6.718;2023-03-01T16:40:19;6.70;1.00
20560;DHT22;10438;51.454;6.718;2023-03-01T16:42:47;6.60;1.00
20560;DHT22;10438;51.454;6.718;2023-03-01T16:45:12;6.60;1.00
20560;DHT22;10438;51.454;6.718;2023-03-01T16:47:38;6.50;1.00
20560;DHT22;10438;51.454;6.718;2023-03-01T16:50:03;6.50;1.00
20560;DHT22;10438;51.454;6.718;2023-03-01T16:52:29;6.40;1.00
20560;DHT22;10438;51.454;6.718;2023-03-01T16:54:54;6.40;1.00
20560;DHT22;10438;51.454;6.718;2023-03-01T16:57:20;6.40;1.00
20560;DHT22;10438;51.454;6.718;2023-03-01T16:59:46;6.30;1.00
20560;DHT22;10438;51.454;6.718;2023-03-01T17:02:12;6.30;1.00
20560;DHT22;10438;51.454;6.718;2023-03-01T17:04:40;6.20;1.00
20560;DHT22;10438;51.454;6.718;2023-03-01T17:07:05;6.20;1.00
20560;DHT22;10438;51.454;6.718;2023-03-01T17:09:37;6.10;1.00
20560;DHT22;10438;51.454;6.718;2023-03-01T17:12:05;6.10;1.00
20560;DHT22;10438;51.454;6.718;2023-03-01T17:14:31;6.10;1.00
20560;DHT22;10438;51.454;6.718;2023-03-01T17:16:57;6.00;1.00
20560;DHT22;10438;51.454;6.718;2023-03-01T17:19:22;6.00;1.00
20560;DHT22;10438;51.454;6.718;2023-03-01T17:21:48;6.00;1.00
20560;DHT22;10438;51.454;6.718;2023-03-01T17:24:13;5.90;1.00
20560;DHT22;10438;51.454;6.718;2023-03-01T17:26:39;5.80;1.00
20560;DHT22;10438;51.454;6.718;2023-03-01T17:29:05;5.80;1.00
20560;DHT22;10438;51.454;6.718;2023-03-01T17:31:31;5.80;1.00
20560;DHT22;10438;51.454;6.718;2023-03-01T17:33:58;5.80;1.00
20560;DHT22;10438;51.454;6.718;2023-03-01T17:36:23;5.70;1.00
20560;DHT22;10438;51.454;6.718;2023-03-01T17:38:50;5.70;1.00
20560;DHT22;10438;51.454;6.718;2023-03-01T17:41:16;5.70;1.00
20560;DHT22;10438;51.454;6.718;2023-03-01T17:43:44;5.60;1.00
20560;DHT22;10438;51.454;6.718;2023-03-01T17:46:09;5.50;1.00
20560;DHT22;10438;51.454;6.718;2023-03-01T17:48:36;5.50;1.00
20560;DHT22;10438;51.454;6.718;2023-03-01T17:51:09;5.40;1.00
20560;DHT22;10438;51.454;6.718;2023-03-01T17:53:35;5.40;1.00
20560;DHT22;10438;51.454;6.718;2023-03-01T17:56:03;5.40;1.00
20560;DHT22;10438;51.454;6.718;2023-03-01T17:58:29;5.40;1.00
20560;DHT22;10438;51.454;6.718;2023-03-01T18:00:55;5.30;1.00
20560;DHT22;10438;51.454;6.718;2023-03-01T18:03:21;5.30;1.00
20560;DHT22;10438;51.454;6.718;2023-03-01T18:05:47;5.30;1.00
20560;DHT22;10438;51.454;6.718;2023-03-01T18:08:13;5.30;1.00
20560;DHT22;10438;51.454;6.718;2023-03-01T18:10:39;5.20;1.00
20560;DHT22;10438;51.454;6.718;2023-03-01T18:13:05;5.20;1.00
20560;DHT22;10438;51.454;6.718;2023-03-01T18:15:32;5.20;1.00
20560;DHT22;10438;51.454;6.718;2023-03-01T18:17:58;5.20;1.00
20560;DHT22;10438;51.454;6.718;2023-03-01T18:20:24;5.20;1.00
20560;DHT22;10438;51.454;6.718;2023-03-01T18:22:49;5.20;1.00
20560;DHT22;10438;51.454;6.718;2023-03-01T18:25:17;5.10;1.00
20560;DHT22;10438;51.454;6.718;2023-03-01T18:27:43;5.10;1.00
20560;DHT22;10438;51.454;6.718;2023-03-01T18:30:09;5.00;1.00
20560;DHT22;10438;51.454;6.718;2023-03-01T18:32:35;5.10;1.00
20560;DHT22;10438;51.454;6.718;2023-03-01T18:35:01;5.00;1.60
20560;DHT22;10438;51.454;6.718;2023-03-01T18:37:26;5.00;4.10
20560;DHT22;10438;51.454;6.718;2023-03-01T18:39:53;4.90;4.60
20560;DHT22;10438;51.454;6.718;2023-03-01T18:42:19;4.90;6.00
20560;DHT22;10438;51.454;6.718;2023-03-01T18:44:47;4.90;5.60
20560;DHT22;10438;51.454;6.718;2023-03-01T18:47:13;4.80;7.30
20560;DHT22;10438;51.454;6.718;2023-03-01T18:49:39;4.80;8.70
20560;DHT22;10438;51.454;6.718;2023-03-01T18:52:05;4.80;11.30
20560;DHT22;10438;51.454;6.718;2023-03-01T18:54:31;4.70;8.10
20560;DHT22;10438;51.454;6.718;2023-03-01T18:56:57;4.70;10.90
20560;DHT22;10438;51.454;6.718;2023-03-01T18:59:22;4.70;9.60
20560;DHT22;10438;51.454;6.718;2023-03-01T19:01:48;4.70;9.40
20560;DHT22;10438;51.454;6.718;2023-03-01T19:04:13;4.70;9.00
20560;DHT22;10438;51.454;6.718;2023-03-01T19:06:39;4.70;10.00
20560;DHT22;10438;51.454;6.718;2023-03-01T19:09:06;4.70;11.60
20560;DHT22;10438;51.454;6.718;2023-03-01T19:11:31;4.60;11.40
20560;DHT22;10438;51.454;6.718;2023-03-01T19:13:58;4.60;11.90
20560;DHT22;10438;51.454;6.718;2023-03-01T19:16:26;4.60;10.90
20560;DHT22;10438;51.454;6.718;2023-03-01T19:18:55;4.60;11.50
20560;DHT22;10438;51.454;6.718;2023-03-01T19:21:22;4.60;13.30
20560;DHT22;10438;51.454;6.718;2023-03-01T19:23:50;4.50;15.20
20560;DHT22;10438;51.454;6.718;2023-03-01T19:26:18;4.50;15.70
20560;DHT22;10438;51.454;6.718;2023-03-01T19:28:45;4.50;16.70
20560;DHT22;10438;51.454;6.718;2023-03-01T19:31:14;4.40;15.80